Accueil
METAR-TAF:

METAR-TAF

Aéroports :

Aéroport de Venise-Marco-Polo

Venise, Italie

latitude: 45-30N, longitude: 012-20E, altitude: 2 m

Observation

Le bulletin a été fait il y a 15 minutes, à 23:20 UTC
Vent 6 kt de sud
Température 25°C
Humidité 61%
Pression 1012 hPa
Visibilité 10 km ou plus
pas de nuages en-dessous de 1500 mètres et pas de cumulonimbus.

METAR: LIPZ 032320Z 19006KT CAVOK 25/17 Q1012 NOSIG

Heure: 01:35 (23:35 UTC)

Prévision

Le bulletin a été fait il y a 6 heures et 35 minutes, à 17:00 UTC
Prévision valable du 03 à 18 UTC au 04 à 24 UTC
Vent 8 kt de sud/sud-est
Visibilité 10 km ou plus
Quelques nuages à une hauteur de 5000 ft
Evoluant progressivement
du 03 à 19 UTC au 03 à 22 UTC
Vent 10 kt de nord/nord-est
Temporairement
du 04 à 21 UTC au 04 à 24 UTC
Visibilité: 4000 m
orage, pluie

TAF: LIPZ 031700Z 0318/0424 16008KT 9999 FEW050 BECMG 0319/0322 03010KT TEMPO 0421/0424 4000 TSRA

Observations et prévisions météorologiques de plus de 4000 aéroports (messages METAR et TAF).

Les stations disponibles sont représentées par des disques jaunes et rouges sur la carte.

Passer la souris dessus pour voir le nom de la station.

Cliquer dessus pour voir les observations et prévisions météorologiques.

Pour changer de carte: cliquez sur les boutons verts avec une croix noire pour zoomer, sur le bouton vert avec un tiret pour effectuer un zoom arrière, ou sur les flèches vertes pour les cartes adjacentes.


METAR-TAF: